createdAt,value
2023-02-11T00:00:08.899Z,1025.79
2023-02-11T00:00:29.959Z,1025.81
2023-02-11T00:00:51.352Z,1025.79
2023-02-11T00:01:12.616Z,1025.75
2023-02-11T00:01:33.647Z,1025.77
2023-02-11T00:01:56.719Z,1025.75
2023-02-11T00:02:17.875Z,1025.72
2023-02-11T00:02:38.903Z,1025.75
2023-02-11T00:03:00.040Z,1025.75
2023-02-11T00:03:21.149Z,1025.74
2023-02-11T00:03:42.255Z,1025.72
2023-02-11T00:04:03.308Z,1025.72
2023-02-11T00:04:24.393Z,1025.72
2023-02-11T00:04:45.439Z,1025.72
2023-02-11T00:05:06.503Z,1025.70
2023-02-11T00:05:27.574Z,1025.72
2023-02-11T00:05:49.178Z,1025.72
2023-02-11T00:06:10.379Z,1025.72
2023-02-11T00:06:31.449Z,1025.68
2023-02-11T00:06:54.810Z,1025.68
2023-02-11T00:07:15.830Z,1025.68
2023-02-11T00:07:36.902Z,1025.70
2023-02-11T00:07:57.956Z,1025.72
2023-02-11T00:08:19.036Z,1025.68
2023-02-11T00:08:40.100Z,1025.70
2023-02-11T00:09:01.276Z,1025.70
2023-02-11T00:09:22.308Z,1025.72
2023-02-11T00:09:43.359Z,1025.72
2023-02-11T00:10:04.449Z,1025.74
2023-02-11T00:10:25.501Z,1025.74
2023-02-11T00:10:46.533Z,1025.74
2023-02-11T00:11:07.627Z,1025.74
2023-02-11T00:11:28.649Z,1025.74
2023-02-11T00:11:49.798Z,1025.75
2023-02-11T00:12:12.712Z,1025.72
2023-02-11T00:12:33.739Z,1025.72
2023-02-11T00:12:54.796Z,1025.72
2023-02-11T00:13:15.861Z,1025.72
2023-02-11T00:13:36.984Z,1025.72
2023-02-11T00:13:58.008Z,1025.68
2023-02-11T00:14:19.066Z,1025.68
2023-02-11T00:14:40.145Z,1025.70
2023-02-11T00:15:01.249Z,1025.68
2023-02-11T00:15:22.284Z,1025.64
2023-02-11T00:15:43.346Z,1025.64
2023-02-11T00:16:04.436Z,1025.66
2023-02-11T00:16:25.509Z,1025.66
2023-02-11T00:16:46.631Z,1025.68
2023-02-11T00:17:07.769Z,1025.68
2023-02-11T00:17:30.684Z,1025.70
2023-02-11T00:17:51.789Z,1025.72
2023-02-11T00:18:12.833Z,1025.70
2023-02-11T00:18:33.933Z,1025.70
2023-02-11T00:18:54.966Z,1025.72
2023-02-11T00:19:16.026Z,1025.72
2023-02-11T00:19:37.109Z,1025.72
2023-02-11T00:19:58.141Z,1025.70
2023-02-11T00:20:19.231Z,1025.70
2023-02-11T00:20:40.320Z,1025.68
2023-02-11T00:21:01.394Z,1025.68
2023-02-11T00:21:22.488Z,1025.68
2023-02-11T00:21:43.552Z,1025.66
2023-02-11T00:22:04.595Z,1025.68
2023-02-11T00:22:25.638Z,1025.70
2023-02-11T00:22:48.469Z,1025.68
2023-02-11T00:23:09.562Z,1025.70
2023-02-11T00:23:30.608Z,1025.68
2023-02-11T00:23:51.682Z,1025.72
2023-02-11T00:24:12.722Z,1025.72
2023-02-11T00:24:33.821Z,1025.68
2023-02-11T00:24:54.885Z,1025.70
2023-02-11T00:25:15.949Z,1025.70
2023-02-11T00:25:36.999Z,1025.70
2023-02-11T00:25:58.173Z,1025.72
2023-02-11T00:26:19.204Z,1025.70
2023-02-11T00:26:40.262Z,1025.70
2023-02-11T00:27:01.397Z,1025.68
2023-02-11T00:27:22.416Z,1025.70
2023-02-11T00:27:43.506Z,1025.70
2023-02-11T00:28:06.534Z,1025.70
2023-02-11T00:28:27.661Z,1025.70
2023-02-11T00:28:48.711Z,1025.68
2023-02-11T00:29:09.777Z,1025.68
2023-02-11T00:29:30.832Z,1025.72
2023-02-11T00:29:51.900Z,1025.72
2023-02-11T00:30:12.965Z,1025.72
2023-02-11T00:30:34.153Z,1025.75
2023-02-11T00:30:55.370Z,1025.72
2023-02-11T00:31:16.660Z,1025.72
2023-02-11T00:31:37.911Z,1025.72
2023-02-11T00:31:59.053Z,1025.70
2023-02-11T00:32:20.103Z,1025.68
2023-02-11T00:32:41.170Z,1025.68
2023-02-11T00:33:02.272Z,1025.68
2023-02-11T00:33:25.186Z,1025.70
2023-02-11T00:33:46.242Z,1025.68
2023-02-11T00:34:07.314Z,1025.68
2023-02-11T00:34:28.354Z,1025.62
2023-02-11T00:34:49.418Z,1025.64
2023-02-11T00:35:10.480Z,1025.60
2023-02-11T00:35:31.544Z,1025.60
2023-02-11T00:35:53.006Z,1025.60
2023-02-11T00:36:14.095Z,1025.60
2023-02-11T00:36:35.161Z,1025.56
2023-02-11T00:36:56.219Z,1025.56
2023-02-11T00:37:17.284Z,1025.58
2023-02-11T00:37:38.360Z,1025.58
2023-02-11T00:37:59.420Z,1025.58
2023-02-11T00:38:20.486Z,1025.58
2023-02-11T00:38:43.712Z,1025.56
2023-02-11T00:39:04.781Z,1025.56
2023-02-11T00:39:25.873Z,1025.54
2023-02-11T00:39:46.944Z,1025.52
2023-02-11T00:40:08.013Z,1025.52
2023-02-11T00:40:29.071Z,1025.52
2023-02-11T00:40:50.112Z,1025.52
2023-02-11T00:41:11.163Z,1025.52
2023-02-11T00:41:32.216Z,1025.50
2023-02-11T00:41:53.281Z,1025.50
2023-02-11T00:42:14.341Z,1025.54
2023-02-11T00:42:35.402Z,1025.54
2023-02-11T00:42:56.606Z,1025.52
2023-02-11T00:43:17.661Z,1025.52
2023-02-11T00:43:40.672Z,1025.50
2023-02-11T00:44:01.776Z,1025.50
2023-02-11T00:44:22.844Z,1025.52
2023-02-11T00:44:43.893Z,1025.52
2023-02-11T00:45:04.962Z,1025.56
2023-02-11T00:45:26.204Z,1025.54
2023-02-11T00:45:47.397Z,1025.54
2023-02-11T00:46:08.569Z,1025.54
2023-02-11T00:46:29.864Z,1025.52
2023-02-11T00:46:50.957Z,1025.54
2023-02-11T00:47:12.009Z,1025.50
2023-02-11T00:47:33.116Z,1025.48
2023-02-11T00:47:54.164Z,1025.52
2023-02-11T00:48:15.222Z,1025.50
2023-02-11T00:48:36.298Z,1025.52
2023-02-11T00:48:58.973Z,1025.52
2023-02-11T00:49:19.999Z,1025.54
2023-02-11T00:49:41.054Z,1025.54
2023-02-11T00:50:02.144Z,1025.56
2023-02-11T00:50:23.169Z,1025.56
2023-02-11T00:50:44.226Z,1025.54
2023-02-11T00:51:05.298Z,1025.58
2023-02-11T00:51:26.360Z,1025.58
2023-02-11T00:51:47.428Z,1025.56
2023-02-11T00:52:08.474Z,1025.60
2023-02-11T00:52:29.534Z,1025.58
2023-02-11T00:52:50.647Z,1025.56
2023-02-11T00:53:11.674Z,1025.56
2023-02-11T00:53:32.754Z,1025.54
2023-02-11T00:53:53.810Z,1025.56
2023-02-11T00:54:16.643Z,1025.56
2023-02-11T00:54:37.703Z,1025.52
2023-02-11T00:54:58.809Z,1025.52
2023-02-11T00:55:19.844Z,1025.54
2023-02-11T00:55:40.920Z,1025.52
2023-02-11T00:56:02.008Z,1025.52
2023-02-11T00:56:23.054Z,1025.52
2023-02-11T00:56:44.110Z,1025.50
2023-02-11T00:57:05.215Z,1025.48
2023-02-11T00:57:26.262Z,1025.48
2023-02-11T00:57:47.297Z,1025.48
2023-02-11T00:58:08.363Z,1025.46
2023-02-11T00:58:29.414Z,1025.46
2023-02-11T00:58:50.483Z,1025.44
2023-02-11T00:59:11.557Z,1025.46
2023-02-11T00:59:34.416Z,1025.42
2023-02-11T00:59:55.493Z,1025.40
2023-02-11T01:00:16.559Z,1025.38
2023-02-11T01:00:37.636Z,1025.38
2023-02-11T01:00:58.693Z,1025.36
2023-02-11T01:01:19.849Z,1025.34
2023-02-11T01:01:40.891Z,1025.32
2023-02-11T01:02:01.937Z,1025.32
2023-02-11T01:02:23.012Z,1025.30
2023-02-11T01:02:44.083Z,1025.32
2023-02-11T01:03:05.168Z,1025.32
2023-02-11T01:03:26.236Z,1025.32
2023-02-11T01:03:47.266Z,1025.32
2023-02-11T01:04:08.342Z,1025.32
2023-02-11T01:04:29.379Z,1025.36
2023-02-11T01:04:52.452Z,1025.36
2023-02-11T01:05:13.566Z,1025.40
2023-02-11T01:05:34.653Z,1025.38
2023-02-11T01:05:55.786Z,1025.42
2023-02-11T01:06:16.800Z,1025.40
2023-02-11T01:06:37.860Z,1025.40
2023-02-11T01:06:58.937Z,1025.44
2023-02-11T01:07:19.994Z,1025.44
2023-02-11T01:07:41.041Z,1025.44
2023-02-11T01:08:02.122Z,1025.42
2023-02-11T01:08:23.172Z,1025.48
2023-02-11T01:08:44.219Z,1025.46
2023-02-11T01:09:05.276Z,1025.46
2023-02-11T01:09:26.341Z,1025.46
2023-02-11T01:09:47.404Z,1025.44
2023-02-11T01:10:10.623Z,1025.42
2023-02-11T01:10:31.698Z,1025.42
2023-02-11T01:10:52.777Z,1025.42
2023-02-11T01:11:13.815Z,1025.40
2023-02-11T01:11:34.875Z,1025.36
2023-02-11T01:11:55.933Z,1025.36
2023-02-11T01:12:16.989Z,1025.38
2023-02-11T01:12:38.053Z,1025.34
2023-02-11T01:12:59.159Z,1025.34
2023-02-11T01:13:20.222Z,1025.32
2023-02-11T01:13:41.277Z,1025.30
2023-02-11T01:14:02.333Z,1025.28
2023-02-11T01:14:23.380Z,1025.28
2023-02-11T01:14:44.444Z,1025.28
2023-02-11T01:15:05.572Z,1025.27
2023-02-11T01:15:28.665Z,1025.25
2023-02-11T01:15:50.125Z,1025.23
2023-02-11T01:16:11.539Z,1025.23
2023-02-11T01:16:32.662Z,1025.25
2023-02-11T01:16:53.689Z,1025.25
2023-02-11T01:17:14.747Z,1025.23
2023-02-11T01:17:35.860Z,1025.21
2023-02-11T01:17:56.884Z,1025.19
2023-02-11T01:18:17.957Z,1025.19
2023-02-11T01:18:39.017Z,1025.17
2023-02-11T01:19:00.093Z,1025.25
2023-02-11T01:19:21.127Z,1025.15
2023-02-11T01:19:42.206Z,1025.21
2023-02-11T01:20:03.267Z,1025.21
2023-02-11T01:20:24.341Z,1025.23
2023-02-11T01:20:47.178Z,1025.21
2023-02-11T01:21:08.199Z,1025.21
2023-02-11T01:21:29.272Z,1025.19
2023-02-11T01:21:50.329Z,1025.17
2023-02-11T01:22:11.400Z,1025.17
2023-02-11T01:22:32.462Z,1025.17
2023-02-11T01:22:53.529Z,1025.17
2023-02-11T01:23:14.566Z,1025.17
2023-02-11T01:23:35.626Z,1025.17
2023-02-11T01:23:56.684Z,1025.17
2023-02-11T01:24:17.769Z,1025.15
2023-02-11T01:24:38.806Z,1025.17
2023-02-11T01:24:59.868Z,1025.15
2023-02-11T01:25:20.965Z,1025.13
2023-02-11T01:25:42.013Z,1025.11
2023-02-11T01:26:04.916Z,1025.13
2023-02-11T01:26:25.947Z,1025.09
2023-02-11T01:26:47.081Z,1025.07
2023-02-11T01:27:08.107Z,1025.05
2023-02-11T01:27:29.167Z,1025.03
2023-02-11T01:27:50.235Z,1025.05
2023-02-11T01:28:11.300Z,1025.07
2023-02-11T01:28:32.421Z,1025.07
2023-02-11T01:28:53.495Z,1025.09
2023-02-11T01:29:14.557Z,1025.09
2023-02-11T01:29:35.621Z,1025.09
2023-02-11T01:29:56.702Z,1025.09
2023-02-11T01:30:17.762Z,1025.13
2023-02-11T01:30:39.575Z,1025.11
2023-02-11T01:31:00.763Z,1025.15
2023-02-11T01:31:23.632Z,1025.13
2023-02-11T01:31:44.719Z,1025.15
2023-02-11T01:32:05.779Z,1025.17
2023-02-11T01:32:26.880Z,1025.15
2023-02-11T01:32:47.940Z,1025.13
2023-02-11T01:33:08.998Z,1025.15
2023-02-11T01:33:30.058Z,1025.13
2023-02-11T01:33:51.182Z,1025.19
2023-02-11T01:34:12.206Z,1025.17
2023-02-11T01:34:33.275Z,1025.13
2023-02-11T01:34:54.308Z,1025.17
2023-02-11T01:35:15.385Z,1025.17
2023-02-11T01:35:36.428Z,1025.17
2023-02-11T01:35:57.509Z,1025.15
2023-02-11T01:36:18.567Z,1025.15
2023-02-11T01:36:41.392Z,1025.19
2023-02-11T01:37:02.448Z,1025.17
2023-02-11T01:37:23.517Z,1025.17
2023-02-11T01:37:44.562Z,1025.15
2023-02-11T01:38:05.614Z,1025.15
2023-02-11T01:38:26.746Z,1025.17
2023-02-11T01:38:47.768Z,1025.15
2023-02-11T01:39:08.851Z,1025.13
2023-02-11T01:39:29.896Z,1025.17
2023-02-11T01:39:50.959Z,1025.13
2023-02-11T01:40:12.095Z,1025.13
2023-02-11T01:40:33.150Z,1025.13
2023-02-11T01:40:54.209Z,1025.13
2023-02-11T01:41:15.288Z,1025.13
2023-02-11T01:41:36.329Z,1025.11
2023-02-11T01:41:59.406Z,1025.11
2023-02-11T01:42:20.444Z,1025.09
2023-02-11T01:42:41.498Z,1025.09
2023-02-11T01:43:02.603Z,1025.07
2023-02-11T01:43:23.663Z,1025.05
2023-02-11T01:43:44.721Z,1025.05
2023-02-11T01:44:05.764Z,1025.03
2023-02-11T01:44:26.881Z,1025.03
2023-02-11T01:44:47.897Z,1025.03
2023-02-11T01:45:08.950Z,1025.03
2023-02-11T01:45:30.031Z,1025.03
2023-02-11T01:45:51.463Z,1025.05
2023-02-11T01:46:12.688Z,1025.05
2023-02-11T01:46:33.798Z,1025.05
2023-02-11T01:46:54.876Z,1025.07
2023-02-11T01:47:17.857Z,1025.05
2023-02-11T01:47:38.939Z,1025.07
2023-02-11T01:47:59.997Z,1025.07
2023-02-11T01:48:21.060Z,1025.07
2023-02-11T01:48:42.103Z,1025.07
2023-02-11T01:49:03.222Z,1025.07
2023-02-11T01:49:24.401Z,1025.05
2023-02-11T01:49:45.464Z,1025.09
2023-02-11T01:50:06.504Z,1025.09
2023-02-11T01:50:27.573Z,1025.05
2023-02-11T01:50:48.687Z,1025.05
2023-02-11T01:51:09.713Z,1025.05
2023-02-11T01:51:30.763Z,1025.05
2023-02-11T01:51:51.834Z,1025.03
2023-02-11T01:52:15.068Z,1025.05
2023-02-11T01:52:36.200Z,1025.05
2023-02-11T01:52:57.220Z,1025.03
2023-02-11T01:53:18.275Z,1024.99
2023-02-11T01:53:39.340Z,1025.03
2023-02-11T01:54:00.477Z,1024.97
2023-02-11T01:54:21.525Z,1024.99
2023-02-11T01:54:42.588Z,1024.97
2023-02-11T01:55:03.660Z,1024.95
2023-02-11T01:55:24.733Z,1024.91
2023-02-11T01:55:45.794Z,1024.89
2023-02-11T01:56:06.838Z,1024.85
2023-02-11T01:56:27.921Z,1024.85
2023-02-11T01:56:48.995Z,1024.85
2023-02-11T01:57:10.041Z,1024.83
2023-02-11T01:57:33.117Z,1024.83
2023-02-11T01:57:54.188Z,1024.85
2023-02-11T01:58:15.212Z,1024.83
2023-02-11T01:58:36.304Z,1024.85
2023-02-11T01:58:57.351Z,1024.81
2023-02-11T01:59:18.399Z,1024.83
2023-02-11T01:59:41.583Z,1024.80
2023-02-11T02:00:02.626Z,1024.83
2023-02-11T02:00:23.812Z,1024.83
2023-02-11T02:00:44.832Z,1024.85
2023-02-11T02:01:05.888Z,1024.83
2023-02-11T02:01:27.041Z,1024.85
2023-02-11T02:01:48.300Z,1024.85
2023-02-11T02:02:09.326Z,1024.83
2023-02-11T02:02:32.511Z,1024.83
2023-02-11T02:02:53.614Z,1024.83
2023-02-11T02:03:14.732Z,1024.83
2023-02-11T02:03:35.841Z,1024.87
2023-02-11T02:03:56.993Z,1024.83
2023-02-11T02:04:18.170Z,1024.87
2023-02-11T02:04:39.223Z,1024.81
2023-02-11T02:05:00.295Z,1024.81
2023-02-11T02:05:21.326Z,1024.81
2023-02-11T02:05:42.410Z,1024.78
2023-02-11T02:06:03.524Z,1024.78
2023-02-11T02:06:24.583Z,1024.76
2023-02-11T02:06:45.632Z,1024.76
2023-02-11T02:07:06.696Z,1024.72
2023-02-11T02:07:27.784Z,1024.72
2023-02-11T02:07:51.070Z,1024.72
2023-02-11T02:08:12.112Z,1024.70
2023-02-11T02:08:33.204Z,1024.68
2023-02-11T02:08:54.256Z,1024.68
2023-02-11T02:09:15.314Z,1024.66
2023-02-11T02:09:36.421Z,1024.66
2023-02-11T02:09:57.474Z,1024.66
2023-02-11T02:10:18.519Z,1024.66
2023-02-11T02:10:39.582Z,1024.64
2023-02-11T02:11:00.649Z,1024.64
2023-02-11T02:11:21.708Z,1024.66
2023-02-11T02:11:42.804Z,1024.66
2023-02-11T02:12:03.835Z,1024.66
2023-02-11T02:12:24.888Z,1024.68
2023-02-11T02:12:48.038Z,1024.62
2023-02-11T02:13:09.090Z,1024.62
2023-02-11T02:13:30.179Z,1024.62
2023-02-11T02:13:51.218Z,1024.64
2023-02-11T02:14:12.272Z,1024.60
2023-02-11T02:14:33.351Z,1024.62
2023-02-11T02:14:54.390Z,1024.60
2023-02-11T02:15:15.478Z,1024.60
2023-02-11T02:15:36.541Z,1024.58
2023-02-11T02:15:57.636Z,1024.56
2023-02-11T02:16:18.816Z,1024.56
2023-02-11T02:16:39.962Z,1024.60
2023-02-11T02:17:00.999Z,1024.56
2023-02-11T02:17:22.087Z,1024.52
2023-02-11T02:17:43.135Z,1024.50
2023-02-11T02:18:06.036Z,1024.48
2023-02-11T02:18:27.160Z,1024.44
2023-02-11T02:18:48.212Z,1024.42
2023-02-11T02:19:09.270Z,1024.40
2023-02-11T02:19:30.358Z,1024.40
2023-02-11T02:19:51.388Z,1024.42
2023-02-11T02:20:12.450Z,1024.40
2023-02-11T02:20:33.503Z,1024.40
2023-02-11T02:20:54.576Z,1024.38
2023-02-11T02:21:15.692Z,1024.40
2023-02-11T02:21:36.719Z,1024.42
2023-02-11T02:21:57.791Z,1024.42
2023-02-11T02:22:18.859Z,1024.42
2023-02-11T02:22:39.910Z,1024.42
2023-02-11T02:23:00.969Z,1024.42
2023-02-11T02:23:24.036Z,1024.40
2023-02-11T02:23:45.090Z,1024.42
2023-02-11T02:24:06.143Z,1024.40
2023-02-11T02:24:27.206Z,1024.40
2023-02-11T02:24:48.265Z,1024.40
2023-02-11T02:25:09.316Z,1024.40
2023-02-11T02:25:30.390Z,1024.40
2023-02-11T02:25:51.723Z,1024.40
2023-02-11T02:26:12.867Z,1024.40
2023-02-11T02:26:33.933Z,1024.42
2023-02-11T02:26:55.145Z,1024.42
2023-02-11T02:27:16.173Z,1024.44
2023-02-11T02:27:37.234Z,1024.48
2023-02-11T02:27:58.299Z,1024.48
2023-02-11T02:28:19.506Z,1024.50
2023-02-11T02:28:42.535Z,1024.48
2023-02-11T02:29:03.592Z,1024.50
2023-02-11T02:29:24.729Z,1024.52
2023-02-11T02:29:45.755Z,1024.50
2023-02-11T02:30:06.806Z,1024.50
2023-02-11T02:30:27.915Z,1024.52
2023-02-11T02:30:48.996Z,1024.52
2023-02-11T02:31:10.203Z,1024.52
2023-02-11T02:31:31.372Z,1024.52
2023-02-11T02:31:52.434Z,1024.54
2023-02-11T02:32:13.485Z,1024.56
2023-02-11T02:32:34.528Z,1024.56
2023-02-11T02:32:55.606Z,1024.56
2023-02-11T02:33:23.340Z,1024.58
2023-02-11T02:33:43.770Z,1024.60
2023-02-11T02:34:04.825Z,1024.60
2023-02-11T02:34:25.919Z,1024.60
2023-02-11T02:34:46.975Z,1024.60
2023-02-11T02:35:08.020Z,1024.60
2023-02-11T02:35:29.081Z,1024.60
2023-02-11T02:35:50.420Z,1024.62
2023-02-11T02:36:11.583Z,1024.60
2023-02-11T02:36:32.696Z,1024.64
2023-02-11T02:36:53.771Z,1024.60
2023-02-11T02:37:14.831Z,1024.60
2023-02-11T02:37:35.902Z,1024.60
2023-02-11T02:37:56.972Z,1024.64
2023-02-11T02:38:18.045Z,1024.64
2023-02-11T02:38:39.113Z,1024.60
2023-02-11T02:39:00.188Z,1024.62
2023-02-11T02:39:21.307Z,1024.64
2023-02-11T02:39:42.318Z,1024.62
2023-02-11T02:40:03.408Z,1024.64
2023-02-11T02:40:24.452Z,1024.64
2023-02-11T02:40:45.510Z,1024.64
2023-02-11T02:41:06.583Z,1024.66
2023-02-11T02:41:27.626Z,1024.66
2023-02-11T02:41:48.693Z,1024.68
2023-02-11T02:42:09.809Z,1024.66
2023-02-11T02:42:30.844Z,1024.68
2023-02-11T02:42:51.904Z,1024.66
2023-02-11T02:43:12.987Z,1024.66
2023-02-11T02:43:34.054Z,1024.68
2023-02-11T02:43:55.075Z,1024.70
2023-02-11T02:44:16.158Z,1024.70
2023-02-11T02:44:37.234Z,1024.72
2023-02-11T02:44:58.366Z,1024.70
2023-02-11T02:45:19.452Z,1024.70
2023-02-11T02:45:40.515Z,1024.68
2023-02-11T02:46:01.690Z,1024.68
2023-02-11T02:46:22.773Z,1024.70
2023-02-11T02:46:43.867Z,1024.68
2023-02-11T02:47:04.934Z,1024.68
2023-02-11T02:47:25.989Z,1024.66
2023-02-11T02:47:47.049Z,1024.70
2023-02-11T02:48:08.102Z,1024.66
2023-02-11T02:48:29.182Z,1024.66
2023-02-11T02:48:50.227Z,1024.64
2023-02-11T02:49:11.284Z,1024.64
2023-02-11T02:49:32.372Z,1024.62
2023-02-11T02:49:53.443Z,1024.62
2023-02-11T02:50:14.503Z,1024.62
2023-02-11T02:50:35.664Z,1024.64
2023-02-11T02:50:56.695Z,1024.64
2023-02-11T02:51:17.764Z,1024.64
2023-02-11T02:51:38.880Z,1024.62
2023-02-11T02:51:59.933Z,1024.64
2023-02-11T02:52:20.999Z,1024.62
2023-02-11T02:52:42.068Z,1024.62
2023-02-11T02:53:03.144Z,1024.60
2023-02-11T02:53:24.202Z,1024.62
2023-02-11T02:53:45.259Z,1024.60
2023-02-11T02:54:06.319Z,1024.60
2023-02-11T02:54:27.431Z,1024.58
2023-02-11T02:54:48.621Z,1024.58
2023-02-11T02:55:09.652Z,1024.60
2023-02-11T02:55:30.759Z,1024.62
2023-02-11T02:55:52.092Z,1024.60
2023-02-11T02:56:13.201Z,1024.60
2023-02-11T02:56:34.260Z,1024.62
2023-02-11T02:56:55.334Z,1024.60
2023-02-11T02:57:16.407Z,1024.62
2023-02-11T02:57:37.453Z,1024.62
2023-02-11T02:57:58.542Z,1024.64
2023-02-11T02:58:19.581Z,1024.62
2023-02-11T02:58:40.627Z,1024.60
2023-02-11T02:59:01.697Z,1024.62
2023-02-11T02:59:22.907Z,1024.62
2023-02-11T02:59:43.986Z,1024.62
2023-02-11T03:00:07.079Z,1024.58
2023-02-11T03:00:28.408Z,1024.60
2023-02-11T03:00:49.531Z,1024.64
2023-02-11T03:01:10.733Z,1024.64
2023-02-11T03:01:31.781Z,1024.64
2023-02-11T03:01:52.840Z,1024.68
2023-02-11T03:02:13.920Z,1024.70
2023-02-11T03:02:34.959Z,1024.68
2023-02-11T03:02:56.106Z,1024.72
2023-02-11T03:03:17.119Z,1024.76
2023-02-11T03:03:38.242Z,1024.78
2023-02-11T03:03:59.402Z,1024.80
2023-02-11T03:04:20.508Z,1024.81
2023-02-11T03:04:41.556Z,1024.83
2023-02-11T03:05:02.633Z,1024.83
2023-02-11T03:05:25.556Z,1024.80
2023-02-11T03:05:46.728Z,1024.83
2023-02-11T03:06:07.770Z,1024.85
2023-02-11T03:06:28.816Z,1024.83
2023-02-11T03:06:49.883Z,1024.83
2023-02-11T03:07:10.996Z,1024.85
2023-02-11T03:07:32.021Z,1024.85
2023-02-11T03:07:53.105Z,1024.87
2023-02-11T03:08:14.172Z,1024.87
2023-02-11T03:08:35.215Z,1024.85
2023-02-11T03:08:56.266Z,1024.85
2023-02-11T03:09:17.332Z,1024.85
2023-02-11T03:09:38.406Z,1024.80
2023-02-11T03:09:59.448Z,1024.80
2023-02-11T03:10:20.516Z,1024.78
2023-02-11T03:10:43.480Z,1024.78
2023-02-11T03:11:04.550Z,1024.74
2023-02-11T03:11:25.605Z,1024.74
2023-02-11T03:11:46.663Z,1024.72
2023-02-11T03:12:07.779Z,1024.76
2023-02-11T03:12:28.871Z,1024.76
2023-02-11T03:12:49.887Z,1024.76
2023-02-11T03:13:10.953Z,1024.74
2023-02-11T03:13:32.013Z,1024.72
2023-02-11T03:13:53.129Z,1024.70
2023-02-11T03:14:14.175Z,1024.68
2023-02-11T03:14:35.236Z,1024.68
2023-02-11T03:14:56.285Z,1024.66
2023-02-11T03:15:17.393Z,1024.68
2023-02-11T03:15:38.419Z,1024.68
2023-02-11T03:16:01.568Z,1024.68
2023-02-11T03:16:22.728Z,1024.66
2023-02-11T03:16:43.801Z,1024.66
2023-02-11T03:17:04.837Z,1024.66
2023-02-11T03:17:25.909Z,1024.64
2023-02-11T03:17:46.947Z,1024.60
2023-02-11T03:18:08.008Z,1024.64
2023-02-11T03:18:29.076Z,1024.64
2023-02-11T03:18:50.182Z,1024.64
2023-02-11T03:19:11.225Z,1024.64
2023-02-11T03:19:32.322Z,1024.66
2023-02-11T03:19:53.385Z,1024.64
2023-02-11T03:20:14.522Z,1024.66
2023-02-11T03:20:35.557Z,1024.66
2023-02-11T03:20:56.599Z,1024.62
2023-02-11T03:21:19.536Z,1024.62
2023-02-11T03:21:40.596Z,1024.62
2023-02-11T03:22:01.749Z,1024.62
2023-02-11T03:22:22.761Z,1024.64
2023-02-11T03:22:43.821Z,1024.60
2023-02-11T03:23:04.908Z,1024.60
2023-02-11T03:23:25.937Z,1024.58
2023-02-11T03:23:47.017Z,1024.58
2023-02-11T03:24:08.072Z,1024.58
2023-02-11T03:24:29.180Z,1024.58
2023-02-11T03:24:50.213Z,1024.56
2023-02-11T03:25:11.280Z,1024.54
2023-02-11T03:25:32.357Z,1024.56
2023-02-11T03:25:53.426Z,1024.54
2023-02-11T03:26:14.471Z,1024.52
2023-02-11T03:26:37.518Z,1024.48
2023-02-11T03:26:58.583Z,1024.50
2023-02-11T03:27:19.640Z,1024.50
2023-02-11T03:27:40.713Z,1024.50
2023-02-11T03:28:01.804Z,1024.52
2023-02-11T03:28:22.854Z,1024.50
2023-02-11T03:28:43.912Z,1024.48
2023-02-11T03:29:04.957Z,1024.46
2023-02-11T03:29:26.028Z,1024.46
2023-02-11T03:29:47.089Z,1024.42
2023-02-11T03:30:08.145Z,1024.44
2023-02-11T03:30:29.218Z,1024.40
2023-02-11T03:30:50.374Z,1024.40
2023-02-11T03:31:11.606Z,1024.40
2023-02-11T03:31:32.821Z,1024.36
2023-02-11T03:31:55.867Z,1024.33
2023-02-11T03:32:17.075Z,1024.31
2023-02-11T03:32:38.218Z,1024.29
2023-02-11T03:32:59.251Z,1024.27
2023-02-11T03:33:20.320Z,1024.29
2023-02-11T03:33:41.416Z,1024.23
2023-02-11T03:34:02.467Z,1024.29
2023-02-11T03:34:23.522Z,1024.29
2023-02-11T03:34:44.574Z,1024.29
2023-02-11T03:35:05.639Z,1024.27
2023-02-11T03:35:26.761Z,1024.29
2023-02-11T03:35:48.046Z,1024.29
2023-02-11T03:36:09.234Z,1024.27
2023-02-11T03:36:30.285Z,1024.29
2023-02-11T03:36:51.405Z,1024.29
2023-02-11T03:37:14.514Z,1024.29
2023-02-11T03:37:35.598Z,1024.29
2023-02-11T03:37:56.636Z,1024.27
2023-02-11T03:38:17.676Z,1024.31
2023-02-11T03:38:38.853Z,1024.25
2023-02-11T03:38:59.890Z,1024.27
2023-02-11T03:39:20.926Z,1024.25
2023-02-11T03:39:42.002Z,1024.27
2023-02-11T03:40:03.051Z,1024.27
2023-02-11T03:40:24.213Z,1024.23
2023-02-11T03:40:45.239Z,1024.21
2023-02-11T03:41:06.327Z,1024.21
2023-02-11T03:41:27.409Z,1024.17
2023-02-11T03:41:48.465Z,1024.15
2023-02-11T03:42:09.552Z,1024.11
2023-02-11T03:42:32.523Z,1024.09
2023-02-11T03:42:53.593Z,1024.07
2023-02-11T03:43:14.630Z,1024.05
2023-02-11T03:43:35.712Z,1024.05
2023-02-11T03:43:56.794Z,1023.99
2023-02-11T03:44:17.819Z,1024.03
2023-02-11T03:44:38.894Z,1024.01
2023-02-11T03:44:59.948Z,1023.99
2023-02-11T03:45:21.003Z,1023.99
2023-02-11T03:45:42.175Z,1023.97
2023-02-11T03:46:03.286Z,1023.95
2023-02-11T03:46:24.462Z,1023.99
2023-02-11T03:46:45.494Z,1023.95
2023-02-11T03:47:06.573Z,1023.93
2023-02-11T03:47:27.639Z,1023.91
2023-02-11T03:47:50.738Z,1023.89
2023-02-11T03:48:11.790Z,1023.93
2023-02-11T03:48:32.884Z,1023.87
2023-02-11T03:48:53.942Z,1023.87
2023-02-11T03:49:14.982Z,1023.89
2023-02-11T03:49:36.055Z,1023.87
2023-02-11T03:49:57.130Z,1023.87
2023-02-11T03:50:18.179Z,1023.86
2023-02-11T03:50:39.236Z,1023.86
2023-02-11T03:51:00.295Z,1023.86
2023-02-11T03:51:21.422Z,1023.86
2023-02-11T03:51:42.452Z,1023.87
2023-02-11T03:52:03.505Z,1023.87
2023-02-11T03:52:24.658Z,1023.87
2023-02-11T03:52:45.780Z,1023.87
2023-02-11T03:53:09.050Z,1023.87
2023-02-11T03:53:30.084Z,1023.86
2023-02-11T03:53:51.143Z,1023.87
2023-02-11T03:54:12.215Z,1023.87
2023-02-11T03:54:33.280Z,1023.87
2023-02-11T03:54:54.391Z,1023.87
2023-02-11T03:55:15.426Z,1023.86
2023-02-11T03:55:36.513Z,1023.87
2023-02-11T03:55:57.589Z,1023.87
2023-02-11T03:56:18.623Z,1023.89
2023-02-11T03:56:39.681Z,1023.89
2023-02-11T03:57:00.730Z,1023.89
2023-02-11T03:57:21.921Z,1023.87
2023-02-11T03:57:42.943Z,1023.87
2023-02-11T03:58:04.012Z,1023.87
2023-02-11T03:58:26.745Z,1023.93
2023-02-11T03:58:47.789Z,1023.89
2023-02-11T03:59:08.859Z,1023.91
2023-02-11T03:59:29.910Z,1023.93
2023-02-11T03:59:51.069Z,1023.93
2023-02-11T04:00:12.106Z,1023.91
2023-02-11T04:00:33.170Z,1023.93
2023-02-11T04:00:54.350Z,1023.93
2023-02-11T04:01:15.532Z,1023.91
2023-02-11T04:01:36.556Z,1023.91
2023-02-11T04:01:57.609Z,1023.93
2023-02-11T04:02:18.666Z,1023.95
2023-02-11T04:02:39.771Z,1023.95
2023-02-11T04:03:00.935Z,1023.95
2023-02-11T04:03:22.083Z,1023.95
2023-02-11T04:03:44.967Z,1023.95
2023-02-11T04:04:06.037Z,1023.95
2023-02-11T04:04:27.085Z,1023.95
2023-02-11T04:04:48.213Z,1023.93
2023-02-11T04:05:09.264Z,1023.95
2023-02-11T04:05:30.314Z,1023.93
2023-02-11T04:05:51.673Z,1023.91
2023-02-11T04:06:12.875Z,1023.91
2023-02-11T04:06:33.943Z,1023.93
2023-02-11T04:06:55.024Z,1023.93
2023-02-11T04:07:16.080Z,1023.93
2023-02-11T04:07:37.147Z,1023.95
2023-02-11T04:07:58.195Z,1023.97
2023-02-11T04:08:19.253Z,1023.95
2023-02-11T04:08:40.309Z,1023.95
2023-02-11T04:09:03.519Z,1023.93
2023-02-11T04:09:24.569Z,1023.93
2023-02-11T04:09:45.621Z,1023.93
2023-02-11T04:10:06.693Z,1023.91
2023-02-11T04:10:27.745Z,1023.91
2023-02-11T04:10:48.831Z,1023.93
2023-02-11T04:11:09.870Z,1023.95
2023-02-11T04:11:30.936Z,1023.93
2023-02-11T04:11:51.994Z,1023.93
2023-02-11T04:12:13.065Z,1023.95
2023-02-11T04:12:34.102Z,1023.91
2023-02-11T04:12:55.214Z,1023.97
2023-02-11T04:13:16.295Z,1023.95
2023-02-11T04:13:37.388Z,1023.97
2023-02-11T04:13:58.399Z,1023.99
2023-02-11T04:14:21.468Z,1023.99
2023-02-11T04:14:42.522Z,1024.01
2023-02-11T04:15:03.592Z,1024.01
2023-02-11T04:15:24.641Z,1024.01
2023-02-11T04:15:48.507Z,1024.09
2023-02-11T04:16:09.872Z,1024.03
2023-02-11T04:16:31.101Z,1024.09